Time;durP1;ratioP1;P1;durP2;ratioP2;P2;SDS_P1;SDS_P2;PMS_P1;PMS_P2;Temp;Humidity;BMP_temperature;BMP_pressure;BME280_temperature;BME280_humidity;BME280_pressure;Samples;Min_cycle;Max_cycle;Signal;HPM_P1;HPM_P2
2021/05/02 00:02:05;;;;;;;11.38;7.00;;;2.70;99.90;;;;;;5051696;28;20697;-58
2021/05/02 00:04:31;;;;;;;8.98;6.32;;;2.70;99.90;;;;;;5045756;28;20043;-59
2021/05/02 00:06:58;;;;;;;12.57;7.35;;;2.60;99.90;;;;;;5051491;28;20029;-57
2021/05/02 00:09:24;;;;;;;9.50;6.30;;;2.60;99.90;;;;;;5051906;28;20112;-57
2021/05/02 00:11:49;;;;;;;8.00;6.10;;;2.60;99.90;;;;;;5051199;28;20104;-56
2021/05/02 00:14:15;;;;;;;8.77;5.65;;;2.50;99.90;;;;;;5051963;28;20153;-59
2021/05/02 00:16:41;;;;;;;9.07;5.93;;;2.50;99.90;;;;;;5051217;28;20044;-56
2021/05/02 00:19:09;;;;;;;8.95;6.15;;;2.50;99.90;;;;;;5051817;28;20025;-56
2021/05/02 00:21:36;;;;;;;12.48;6.25;;;2.40;99.90;;;;;;5051363;28;20079;-56
2021/05/02 00:24:03;;;;;;;8.30;6.28;;;2.30;99.90;;;;;;5049752;28;20033;-56
2021/05/02 00:26:29;;;;;;;9.15;5.90;;;2.30;99.90;;;;;;5050006;28;20029;-58
2021/05/02 00:28:58;;;;;;;7.88;5.57;;;2.20;99.90;;;;;;5051252;28;20112;-57
2021/05/02 00:31:24;;;;;;;13.90;6.05;;;2.10;99.90;;;;;;5050951;28;20059;-54
2021/05/02 00:33:50;;;;;;;8.77;6.43;;;2.10;99.90;;;;;;5051147;28;20033;-58
2021/05/02 00:36:17;;;;;;;11.13;6.60;;;2.10;99.90;;;;;;5051044;28;20082;-54
2021/05/02 00:38:43;;;;;;;10.07;6.60;;;2.00;99.90;;;;;;5050182;28;20060;-58
2021/05/02 00:41:16;;;;;;;19.73;7.05;;;2.00;99.90;;;;;;5049939;28;20483;-57
2021/05/02 00:44:02;;;;;;;9.38;6.78;;;2.00;99.90;;;;;;5050695;28;20044;-55
2021/05/02 00:46:29;;;;;;;11.77;7.60;;;2.00;99.90;;;;;;5051000;28;20128;-57
2021/05/02 00:49:04;;;;;;;12.07;7.82;;;2.00;99.90;;;;;;5050510;28;20098;-57
2021/05/02 00:51:37;;;;;;;18.52;11.57;;;2.00;99.90;;;;;;5050878;28;20061;-60
2021/05/02 00:54:05;;;;;;;18.48;10.98;;;1.90;99.90;;;;;;5050283;28;20064;-58
2021/05/02 00:56:35;;;;;;;15.00;10.15;;;1.90;99.90;;;;;;5050388;28;20037;-55
2021/05/02 00:59:07;;;;;;;19.63;10.90;;;1.90;99.90;;;;;;5051094;28;20044;-58
2021/05/02 01:01:43;;;;;;;15.98;10.80;;;1.90;99.90;;;;;;5049956;28;20063;-57
2021/05/02 01:04:12;;;;;;;29.38;9.95;;;1.90;99.90;;;;;;5047600;28;20037;-55
2021/05/02 01:06:40;;;;;;;10.75;7.68;;;2.00;99.90;;;;;;5050378;28;20032;-57
2021/05/02 01:09:08;;;;;;;11.05;7.78;;;2.00;99.90;;;;;;5050426;28;20032;-55
2021/05/02 01:11:37;;;;;;;10.10;7.70;;;2.00;99.90;;;;;;5050183;28;20108;-59
2021/05/02 01:14:05;;;;;;;18.23;9.07;;;2.10;99.90;;;;;;5050410;28;20036;-56
2021/05/02 01:16:35;;;;;;;14.93;9.32;;;2.10;99.90;;;;;;5050887;28;20021;-57
2021/05/02 01:19:04;;;;;;;17.77;9.93;;;2.20;99.90;;;;;;5050532;28;20061;-56
2021/05/02 01:21:32;;;;;;;11.10;7.72;;;2.20;99.90;;;;;;5050474;28;20032;-60
2021/05/02 01:24:00;;;;;;;15.85;11.05;;;2.30;99.90;;;;;;5049051;28;20128;-56
2021/05/02 01:26:29;;;;;;;16.33;10.05;;;2.30;99.90;;;;;;5050015;28;20033;-55
2021/05/02 01:28:56;;;;;;;21.45;10.48;;;2.40;99.90;;;;;;5050959;28;20033;-56
2021/05/02 01:31:23;;;;;;;19.55;12.25;;;2.40;99.90;;;;;;5043278;28;20021;-59
2021/05/02 01:33:50;;;;;;;19.30;11.57;;;2.30;99.90;;;;;;5050446;28;20375;-57
2021/05/02 01:36:16;;;;;;;12.80;8.60;;;2.30;99.90;;;;;;5048705;28;20040;-58
2021/05/02 01:38:42;;;;;;;13.10;7.50;;;2.20;99.90;;;;;;5050348;28;20029;-60
2021/05/02 01:41:08;;;;;;;11.80;6.70;;;2.20;99.90;;;;;;5049617;28;20040;-58
2021/05/02 01:43:34;;;;;;;10.52;6.72;;;2.20;99.90;;;;;;5048881;28;20399;-56
2021/05/02 01:46:00;;;;;;;8.95;6.85;;;2.10;99.90;;;;;;5050046;28;20033;-54
2021/05/02 01:48:29;;;;;;;9.05;6.70;;;2.20;99.90;;;;;;5048145;28;20517;-56
2021/05/02 01:51:02;;;;;;;11.52;6.63;;;2.20;99.90;;;;;;5050036;28;20037;-56
2021/05/02 01:53:29;;;;;;;11.57;6.25;;;2.10;99.90;;;;;;5050333;28;20098;-54
2021/05/02 01:55:55;;;;;;;8.77;6.60;;;2.10;99.90;;;;;;5049705;28;20029;-56
2021/05/02 01:58:22;;;;;;;11.98;7.68;;;2.10;99.90;;;;;;5050267;28;20053;-57
2021/05/02 02:00:55;;;;;;;11.63;7.35;;;2.00;99.90;;;;;;5048376;28;20048;-56
2021/05/02 02:03:22;;;;;;;12.02;7.68;;;2.00;99.90;;;;;;5045521;28;20151;-57
2021/05/02 02:05:49;;;;;;;11.23;7.72;;;2.00;99.90;;;;;;5051894;28;20055;-56
2021/05/02 02:08:17;;;;;;;9.57;7.07;;;2.10;99.90;;;;;;5054495;28;20036;-56
2021/05/02 02:10:45;;;;;;;11.80;7.28;;;2.00;99.90;;;;;;5053197;28;20054;-57
2021/05/02 02:13:13;;;;;;;11.80;7.30;;;2.10;99.90;;;;;;5053489;28;20052;-56
2021/05/02 02:15:39;;;;;;;11.63;7.07;;;2.10;99.90;;;;;;5052074;28;20471;-56
2021/05/02 02:18:06;;;;;;;13.07;7.93;;;2.10;99.90;;;;;;5044616;28;20054;-56
2021/05/02 02:20:38;;;;;;;12.82;7.30;;;2.10;99.90;;;;;;5053510;28;20039;-56
2021/05/02 02:23:14;;;;;;;18.75;8.55;;;2.10;99.90;;;;;;5053454;28;20049;-55
2021/05/02 02:25:42;;;;;;;12.13;7.53;;;2.10;99.90;;;;;;5053018;28;20053;-54
2021/05/02 02:28:12;;;;;;;10.40;7.20;;;2.10;99.90;;;;;;5042301;28;20406;-55
2021/05/02 02:30:40;;;;;;;11.65;7.47;;;2.00;99.90;;;;;;5053455;28;20036;-56
2021/05/02 02:33:07;;;;;;;12.38;6.97;;;2.00;99.90;;;;;;5053454;28;20091;-55
2021/05/02 02:35:39;;;;;;;14.13;7.65;;;2.00;99.90;;;;;;5053596;28;20032;-55
2021/05/02 02:38:07;;;;;;;23.60;7.97;;;2.00;99.90;;;;;;5053185;28;20387;-55
2021/05/02 02:40:37;;;;;;;10.75;7.40;;;1.90;99.90;;;;;;5052840;28;20071;-58
2021/05/02 02:43:04;;;;;;;11.95;8.05;;;1.90;99.90;;;;;;5052213;28;20061;-57
2021/05/02 02:45:34;;;;;;;10.40;7.40;;;1.90;99.90;;;;;;5053223;28;20033;-58
2021/05/02 02:48:04;;;;;;;12.90;8.10;;;1.80;99.90;;;;;;5052792;28;20053;-57
2021/05/02 02:50:30;;;;;;;12.50;8.18;;;1.90;99.90;;;;;;5040634;28;20111;-56
2021/05/02 02:53:01;;;;;;;10.93;7.90;;;1.90;99.90;;;;;;5051957;28;20045;-56
2021/05/02 02:55:27;;;;;;;13.50;8.00;;;1.90;99.90;;;;;;5052915;28;20043;-54
2021/05/02 02:58:00;;;;;;;15.52;8.68;;;2.00;99.90;;;;;;5052160;28;20120;-54
2021/05/02 03:00:28;;;;;;;14.40;8.63;;;2.00;99.90;;;;;;5053255;28;20067;-56
2021/05/02 03:03:09;;;;;;;18.15;8.82;;;2.00;99.90;;;;;;5052971;28;20045;-56
2021/05/02 03:05:36;;;;;;;16.30;8.50;;;2.00;99.90;;;;;;5041152;28;20025;-58
2021/05/02 03:08:08;;;;;;;11.57;8.27;;;2.00;99.90;;;;;;5054847;28;20047;-57
2021/05/02 03:10:36;;;;;;;33.60;10.15;;;2.00;99.90;;;;;;5058743;28;20066;-56
2021/05/02 03:13:02;;;;;;;15.68;8.73;;;2.00;99.90;;;;;;5053720;28;20063;-58
2021/05/02 03:15:29;;;;;;;11.98;7.80;;;2.00;99.90;;;;;;5052251;28;20017;-56
2021/05/02 03:18:14;;;;;;;16.67;8.77;;;2.10;99.90;;;;;;5052374;28;20033;-55
2021/05/02 03:20:45;;;;;;;12.43;8.15;;;2.10;99.90;;;;;;5043608;28;20036;-55
2021/05/02 03:23:38;;;;;;;11.80;8.10;;;2.10;99.90;;;;;;5050474;28;20107;-56
2021/05/02 03:26:08;;;;;;;11.55;8.27;;;2.10;99.90;;;;;;5041186;28;20086;-57
2021/05/02 03:28:58;;;;;;;12.07;7.88;;;2.10;99.90;;;;;;5050612;28;20483;-56
2021/05/02 03:31:31;;;;;;;10.18;8.15;;;2.10;99.90;;;;;;5042228;28;20071;-58
2021/05/02 03:34:04;;;;;;;10.70;8.23;;;2.10;99.90;;;;;;5052779;28;20097;-57
2021/05/02 03:36:48;;;;;;;13.65;8.50;;;2.00;99.90;;;;;;5052136;28;20056;-56
2021/05/02 03:39:15;;;;;;;9.20;6.57;;;2.00;99.90;;;;;;5049812;28;20029;-57
2021/05/02 03:41:41;;;;;;;11.48;7.70;;;2.00;99.90;;;;;;5051769;28;20036;-55
2021/05/02 03:44:06;;;;;;;11.50;8.90;;;2.00;99.90;;;;;;5051854;28;20036;-56
2021/05/02 03:46:32;;;;;;;14.25;8.35;;;2.00;99.90;;;;;;5052203;28;20040;-52
2021/05/02 03:49:06;;;;;;;27.55;9.00;;;2.00;99.90;;;;;;5051717;28;20052;-55
2021/05/02 03:51:38;;;;;;;10.52;7.72;;;1.90;99.90;;;;;;5052472;28;20024;-55
2021/05/02 03:54:05;;;;;;;17.25;8.23;;;1.90;99.90;;;;;;5051458;28;20041;-56
2021/05/02 03:56:39;;;;;;;12.77;8.38;;;1.80;99.90;;;;;;5051490;28;20122;-54
2021/05/02 03:59:13;;;;;;;11.30;8.48;;;1.80;99.90;;;;;;5052132;28;20029;-56
2021/05/02 04:01:54;;;;;;;12.52;7.63;;;1.60;99.90;;;;;;5051568;28;20029;-55
2021/05/02 04:04:38;;;;;;;11.68;7.90;;;1.60;99.90;;;;;;5043536;28;20033;-56
2021/05/02 04:07:05;;;;;;;11.88;8.30;;;1.60;99.90;;;;;;5050682;28;20132;-57
2021/05/02 04:09:33;;;;;;;11.50;7.88;;;1.60;99.90;;;;;;5050799;28;20094;-55
2021/05/02 04:11:59;;;;;;;11.48;8.88;;;1.60;99.90;;;;;;5051507;28;20399;-57
2021/05/02 04:14:24;;;;;;;12.98;8.32;;;1.60;99.90;;;;;;5051198;28;20467;-56
2021/05/02 04:17:01;;;;;;;15.50;8.98;;;1.60;99.90;;;;;;5051007;28;20463;-56
2021/05/02 04:19:28;;;;;;;13.45;9.10;;;1.60;99.90;;;;;;5050768;28;20059;-56
2021/05/02 04:21:54;;;;;;;12.45;8.55;;;1.60;99.90;;;;;;5051598;28;20137;-55
2021/05/02 04:24:21;;;;;;;16.10;9.55;;;1.60;99.90;;;;;;5050888;28;20153;-56
2021/05/02 04:26:52;;;;;;;25.30;8.80;;;1.50;99.90;;;;;;5051159;28;20025;-56
2021/05/02 04:29:18;;;;;;;12.40;8.13;;;1.50;99.90;;;;;;5050583;28;20047;-57
2021/05/02 04:31:44;;;;;;;12.07;9.27;;;1.50;99.90;;;;;;5051849;28;20029;-58
2021/05/02 04:34:10;;;;;;;13.65;8.07;;;1.50;99.90;;;;;;5051075;28;20040;-55
2021/05/02 04:36:35;;;;;;;17.65;8.88;;;1.50;99.90;;;;;;5050500;28;20186;-57
2021/05/02 04:39:03;;;;;;;13.00;8.57;;;1.40;99.90;;;;;;5050317;28;20505;-57
2021/05/02 04:41:30;;;;;;;16.77;9.43;;;1.40;99.90;;;;;;5051619;28;20032;-55
2021/05/02 04:43:55;;;;;;;19.23;9.63;;;1.40;99.90;;;;;;5050689;28;20570;-55
2021/05/02 04:46:21;;;;;;;12.85;8.68;;;1.30;99.90;;;;;;5050865;28;20112;-57
2021/05/02 04:48:48;;;;;;;14.48;9.05;;;1.30;99.90;;;;;;5050431;28;20086;-55
2021/05/02 04:51:14;;;;;;;15.05;8.73;;;1.30;99.90;;;;;;5051064;28;20056;-57
2021/05/02 04:53:41;;;;;;;16.80;8.48;;;1.30;99.90;;;;;;5051041;28;20087;-55
2021/05/02 04:56:07;;;;;;;18.77;9.55;;;1.30;99.90;;;;;;5050143;28;20029;-56
2021/05/02 04:58:32;;;;;;;19.15;9.82;;;1.30;99.90;;;;;;5051507;28;20055;-55
2021/05/02 05:00:58;;;;;;;16.85;9.52;;;1.40;99.90;;;;;;5049882;28;20556;-56
2021/05/02 05:03:24;;;;;;;23.08;10.32;;;1.40;99.90;;;;;;5050020;28;20037;-58
2021/05/02 05:05:50;;;;;;;16.88;9.45;;;1.40;99.90;;;;;;5050726;28;20091;-56
2021/05/02 05:08:16;;;;;;;44.33;11.95;;;1.50;99.90;;;;;;5050725;28;20052;-56
2021/05/02 05:10:42;;;;;;;17.55;9.63;;;1.50;99.90;;;;;;5050880;28;20029;-55
2021/05/02 05:13:08;;;;;;;15.63;9.88;;;1.50;99.90;;;;;;5049997;28;20029;-57
2021/05/02 05:15:33;;;;;;;29.25;10.38;;;1.50;99.90;;;;;;5050421;28;20021;-57
2021/05/02 05:17:59;;;;;;;35.50;11.55;;;1.50;99.90;;;;;;5050403;28;20443;-57
2021/05/02 05:20:25;;;;;;;20.60;10.30;;;1.60;99.90;;;;;;5050011;28;20029;-58
2021/05/02 05:22:50;;;;;;;14.50;10.05;;;1.60;99.90;;;;;;5050511;28;20107;-56
2021/05/02 05:25:16;;;;;;;27.20;10.80;;;1.60;99.90;;;;;;5049385;28;20033;-55
2021/05/02 05:27:42;;;;;;;14.60;10.18;;;1.60;99.90;;;;;;5051002;28;20025;-57
2021/05/02 05:30:11;;;;;;;29.75;10.38;;;1.70;99.90;;;;;;5050343;28;20033;-58
2021/05/02 05:32:37;;;;;;;18.92;9.98;;;1.80;99.90;;;;;;5049511;28;20788;-58
2021/05/02 05:35:04;;;;;;;16.63;10.20;;;1.90;99.90;;;;;;5050388;28;20044;-56
2021/05/02 05:37:30;;;;;;;24.10;10.48;;;1.80;99.90;;;;;;5049495;28;20081;-57
2021/05/02 05:39:56;;;;;;;40.15;11.63;;;1.90;99.90;;;;;;5052498;28;20037;-54
2021/05/02 05:42:22;;;;;;;34.95;12.30;;;1.90;99.90;;;;;;5053155;28;20071;-54
2021/05/02 05:44:47;;;;;;;36.95;12.10;;;2.10;99.90;;;;;;5054195;28;20048;-58
2021/05/02 05:47:13;;;;;;;52.38;12.25;;;2.10;99.90;;;;;;5054211;28;20037;-56
2021/05/02 05:49:40;;;;;;;50.20;12.20;;;2.20;99.90;;;;;;5054330;28;20031;-55
2021/05/02 05:52:08;;;;;;;42.53;13.18;;;2.30;99.90;;;;;;5053101;28;20588;-58
2021/05/02 05:54:35;;;;;;;16.00;10.15;;;2.30;99.90;;;;;;5052706;28;20090;-59
2021/05/02 05:57:01;;;;;;;14.15;10.27;;;2.40;99.90;;;;;;5053299;28;20037;-55
2021/05/02 05:59:27;;;;;;;22.77;11.75;;;2.40;99.90;;;;;;5053572;28;20395;-58
2021/05/02 06:01:52;;;;;;;16.17;10.77;;;2.60;99.90;;;;;;5054332;28;20033;-57
2021/05/02 06:04:18;;;;;;;35.28;11.55;;;2.60;99.90;;;;;;5053543;28;20044;-57
2021/05/02 06:06:43;;;;;;;17.67;10.07;;;2.70;99.90;;;;;;5053625;28;20051;-58
2021/05/02 06:09:09;;;;;;;62.63;14.40;;;2.80;99.90;;;;;;5054004;28;20061;-55
2021/05/02 06:11:36;;;;;;;31.73;12.23;;;2.90;99.90;;;;;;5054008;28;20764;-56
2021/05/02 06:14:03;;;;;;;46.05;12.77;;;3.00;99.90;;;;;;5053652;28;20045;-56
2021/05/02 06:16:29;;;;;;;22.48;10.70;;;3.10;99.90;;;;;;5054004;28;20471;-57
2021/05/02 06:18:56;;;;;;;50.95;12.68;;;3.30;99.90;;;;;;5053222;28;20032;-56
2021/05/02 06:21:24;;;;;;;17.65;10.77;;;3.30;99.90;;;;;;5053181;28;20032;-54
2021/05/02 06:23:51;;;;;;;28.60;12.30;;;3.40;99.90;;;;;;5053942;28;20048;-55
2021/05/02 06:26:18;;;;;;;32.70;12.38;;;3.50;99.90;;;;;;5055655;28;20039;-57
2021/05/02 06:28:51;;;;;;;23.17;11.45;;;3.60;99.90;;;;;;5057243;28;20386;-54
2021/05/02 06:31:21;;;;;;;25.60;11.68;;;3.80;99.90;;;;;;5054622;28;20064;-58
2021/05/02 06:33:48;;;;;;;30.15;12.95;;;3.90;99.90;;;;;;5050121;28;20120;-58
2021/05/02 06:36:14;;;;;;;24.77;12.55;;;4.10;99.90;;;;;;5052630;28;20108;-56
2021/05/02 06:38:40;;;;;;;24.75;11.90;;;4.30;99.90;;;;;;5053271;28;20017;-56
2021/05/02 06:41:06;;;;;;;26.45;12.65;;;4.40;99.90;;;;;;5051909;28;20041;-58
2021/05/02 06:43:32;;;;;;;21.98;12.30;;;4.50;99.90;;;;;;5052522;28;20033;-57
2021/05/02 06:45:57;;;;;;;21.27;11.85;;;4.60;99.90;;;;;;5052949;28;20041;-59
2021/05/02 06:48:23;;;;;;;25.13;12.82;;;5.00;99.90;;;;;;5053381;28;20029;-57
2021/05/02 06:50:50;;;;;;;37.70;12.68;;;5.50;99.90;;;;;;5051770;28;20057;-58
2021/05/02 06:53:16;;;;;;;20.20;11.88;;;5.90;99.90;;;;;;5053328;28;20764;-57
2021/05/02 06:55:42;;;;;;;29.55;12.20;;;6.40;99.90;;;;;;5052979;28;20025;-57
2021/05/02 06:58:08;;;;;;;33.90;12.43;;;6.80;99.90;;;;;;5052954;28;20037;-58
2021/05/02 07:00:36;;;;;;;26.17;11.20;;;7.20;99.90;;;;;;5052187;28;20464;-57
2021/05/02 07:03:01;;;;;;;18.88;11.30;;;7.50;99.90;;;;;;5052282;28;20080;-56
2021/05/02 07:05:27;;;;;;;22.70;11.25;;;7.70;99.90;;;;;;5052075;28;20052;-59
2021/05/02 07:07:53;;;;;;;27.08;11.50;;;7.90;99.90;;;;;;5052683;28;20033;-54
2021/05/02 07:10:19;;;;;;;18.67;10.88;;;8.00;99.90;;;;;;5052886;28;20037;-57
2021/05/02 07:12:45;;;;;;;19.77;9.95;;;8.00;99.90;;;;;;5051835;28;20387;-56
2021/05/02 07:15:11;;;;;;;19.80;10.80;;;7.90;99.90;;;;;;5052525;28;20025;-57
2021/05/02 07:17:37;;;;;;;14.70;9.27;;;7.90;99.90;;;;;;5052151;28;20056;-55
2021/05/02 07:20:04;;;;;;;17.92;8.50;;;7.90;99.90;;;;;;5052755;28;20109;-57
2021/05/02 07:22:33;;;;;;;23.38;8.20;;;8.00;99.90;;;;;;5052051;28;20044;-57
2021/05/02 07:24:58;;;;;;;43.90;10.02;;;8.00;99.90;;;;;;5052781;28;20506;-57
2021/05/02 07:27:24;;;;;;;50.10;10.45;;;8.10;99.90;;;;;;5050417;28;20136;-58
2021/05/02 07:29:50;;;;;;;25.15;7.03;;;8.30;99.90;;;;;;5052339;28;20021;-57
2021/05/02 07:32:15;;;;;;;29.10;4.80;;;8.40;99.90;;;;;;5049392;28;20037;-55
2021/05/02 07:34:41;;;;;;;9.52;3.72;;;8.60;99.90;;;;;;5039266;28;20083;-56
2021/05/02 07:37:07;;;;;;;20.38;4.57;;;9.00;99.90;;;;;;5050699;28;20028;-55
2021/05/02 07:39:33;;;;;;;35.65;5.18;;;9.20;99.90;;;;;;5051800;28;20036;-57
2021/05/02 07:41:58;;;;;;;34.15;6.22;;;9.30;99.90;;;;;;5049201;28;20490;-58
2021/05/02 07:44:24;;;;;;;35.67;6.43;;;9.60;99.90;;;;;;5051805;28;20082;-57
2021/05/02 07:46:50;;;;;;;21.98;5.53;;;9.90;99.90;;;;;;5052028;28;20067;-57
2021/05/02 07:49:15;;;;;;;52.03;7.75;;;10.10;99.90;;;;;;5051592;28;20033;-59
2021/05/02 07:51:41;;;;;;;25.67;5.85;;;10.30;99.90;;;;;;5051681;28;20056;-58
2021/05/02 07:54:07;;;;;;;14.25;4.70;;;10.60;99.90;;;;;;5051317;28;20463;-57
2021/05/02 07:56:32;;;;;;;51.78;6.45;;;10.60;99.90;;;;;;5051400;28;20025;-56
2021/05/02 07:58:58;;;;;;;10.63;4.50;;;10.90;99.90;;;;;;5051362;28;20033;-58
2021/05/02 08:01:24;;;;;;;15.18;3.92;;;11.00;99.90;;;;;;5051644;28;20032;-57
2021/05/02 08:03:50;;;;;;;43.13;6.32;;;11.20;99.90;;;;;;5048494;28;20036;-56
2021/05/02 08:06:15;;;;;;;14.82;4.25;;;11.20;99.90;;;;;;5050753;28;20072;-56
2021/05/02 08:08:41;;;;;;;26.67;4.90;;;11.40;99.90;;;;;;5050920;28;20110;-56
2021/05/02 08:11:07;;;;;;;7.95;2.65;;;11.50;99.90;;;;;;5051355;28;20066;-56
2021/05/02 08:13:33;;;;;;;17.95;2.65;;;11.60;99.90;;;;;;5049182;28;20087;-56
2021/05/02 08:15:58;;;;;;;19.77;3.70;;;11.80;99.90;;;;;;5051095;28;20037;-58
2021/05/02 08:18:24;;;;;;;30.92;4.95;;;12.00;99.90;;;;;;5051056;28;20108;-56
2021/05/02 08:20:50;;;;;;;11.02;3.80;;;12.50;99.90;;;;;;5050601;28;20063;-56
2021/05/02 08:23:16;;;;;;;28.08;5.35;;;12.70;99.90;;;;;;5049976;28;20112;-57
2021/05/02 08:25:41;;;;;;;16.80;4.63;;;12.70;99.90;;;;;;5050832;28;20033;-57
2021/05/02 08:28:07;;;;;;;33.05;6.13;;;12.80;99.90;;;;;;5051483;28;20040;-58
2021/05/02 08:30:33;;;;;;;30.55;5.70;;;13.10;99.90;;;;;;5050367;28;20025;-58
2021/05/02 08:32:59;;;;;;;11.27;4.75;;;13.20;99.90;;;;;;5050558;28;20033;-58
2021/05/02 08:35:25;;;;;;;25.75;5.20;;;13.20;99.90;;;;;;5050584;28;20083;-57
2021/05/02 08:37:51;;;;;;;13.20;4.38;;;13.20;99.90;;;;;;5051187;28;20029;-56
2021/05/02 08:40:17;;;;;;;66.72;8.10;;;13.00;99.90;;;;;;5050034;28;20762;-57
2021/05/02 08:42:42;;;;;;;17.73;4.53;;;13.20;99.90;;;;;;5048559;28;20028;-58
2021/05/02 08:45:09;;;;;;;22.95;4.68;;;13.60;99.90;;;;;;5051368;28;20032;-58
2021/05/02 08:47:36;;;;;;;31.45;5.93;;;13.70;99.90;;;;;;5048878;28;20100;-55
2021/05/02 08:50:04;;;;;;;16.63;4.80;;;13.70;99.90;;;;;;5050802;28;20033;-54
2021/05/02 08:52:30;;;;;;;40.28;7.32;;;13.90;99.90;;;;;;5050650;28;20058;-56
2021/05/02 08:54:56;;;;;;;14.10;5.10;;;14.00;99.90;;;;;;5050853;28;20029;-55
2021/05/02 08:57:21;;;;;;;31.50;5.50;;;13.60;99.90;;;;;;5050549;28;20029;-57
2021/05/02 08:59:47;;;;;;;41.92;7.15;;;13.40;99.90;;;;;;5049322;28;20025;-57
2021/05/02 09:02:27;;;;;;;19.98;5.57;;;12.80;99.90;;;;;;5048774;28;20469;-57
2021/05/02 09:04:59;;;;;;;22.05;5.60;;;12.50;99.90;;;;;;5050053;28;20045;-58
2021/05/02 09:07:25;;;;;;;18.45;5.25;;;12.30;99.90;;;;;;5050366;28;20495;-59
2021/05/02 09:09:51;;;;;;;11.15;4.60;;;12.80;99.90;;;;;;5050336;28;20036;-59
2021/05/02 09:12:26;;;;;;;21.33;4.80;;;13.10;99.90;;;;;;5050683;28;20609;-58
2021/05/02 09:14:53;;;;;;;;;;;13.30;99.90;;;;;;5050214;28;20436;-58
2021/05/02 09:17:28;;;;;;;24.02;5.63;;;13.60;99.90;;;;;;5050390;28;19912;-58
2021/05/02 09:19:56;;;;;;;21.52;5.63;;;14.00;99.90;;;;;;5050056;28;20048;-58
2021/05/02 09:22:22;;;;;;;8.00;4.55;;;13.90;99.90;;;;;;5048356;28;20135;-59
2021/05/02 09:25:11;;;;;;;16.27;5.32;;;14.30;99.90;;;;;;5050357;28;20044;-55
2021/05/02 09:27:57;;;;;;;10.15;5.00;;;14.20;99.90;;;;;;5047822;28;20048;-60
2021/05/02 09:30:23;;;;;;;23.77;6.05;;;14.00;99.90;;;;;;5080467;28;20090;-58
2021/05/02 09:32:49;;;;;;;17.63;5.00;;;14.40;99.90;;;;;;5051722;28;20082;-58
2021/05/02 09:35:26;;;;;;;11.25;4.55;;;14.50;99.90;;;;;;5050572;28;20108;-59
2021/05/02 09:38:13;;;;;;;20.40;6.25;;;14.20;99.90;;;;;;5049579;28;20079;-58
2021/05/02 09:40:56;;;;;;;14.07;5.10;;;13.90;99.90;;;;;;5049807;28;20041;-56
2021/05/02 09:43:37;;;;;;;29.25;6.45;;;13.70;99.90;;;;;;5049629;28;20090;-55
2021/05/02 09:46:33;;;;;;;15.75;4.93;;;13.90;99.90;;;;;;5050276;28;20052;-57
2021/05/02 09:49:11;;;;;;;;;;;14.10;99.90;;;;;;5045367;28;20044;-59
2021/05/02 09:51:48;;;;;;;12.13;4.10;;;14.40;99.90;;;;;;5049463;28;19908;-58
2021/05/02 09:54:21;;;;;;;10.57;4.65;;;14.70;99.90;;;;;;5050127;28;20033;-57
2021/05/02 09:56:52;;;;;;;25.35;5.53;;;14.10;99.90;;;;;;5049343;28;20125;-57
2021/05/02 09:59:31;;;;;;;12.13;4.20;;;13.90;99.90;;;;;;5049148;28;20094;-58
2021/05/02 10:02:12;;;;;;;12.35;4.93;;;14.00;99.90;;;;;;5039334;28;20041;-58
2021/05/02 10:04:47;;;;;;;16.45;4.35;;;14.40;99.90;;;;;;5049566;28;20122;-59
2021/05/02 10:07:25;;;;;;;13.10;4.60;;;14.30;99.90;;;;;;5048996;28;20025;-55
2021/05/02 10:09:52;;;;;;;8.00;4.15;;;14.50;99.90;;;;;;5049676;28;20086;-58
2021/05/02 10:12:18;;;;;;;8.50;4.43;;;14.60;99.90;;;;;;5049568;28;20710;-59
2021/05/02 10:14:45;;;;;;;10.95;3.92;;;14.70;99.90;;;;;;5050094;28;20025;-58
2021/05/02 10:17:12;;;;;;;18.60;4.40;;;15.10;99.20;;;;;;5048345;28;20474;-57
2021/05/02 10:19:38;;;;;;;8.40;4.35;;;15.10;99.50;;;;;;5049768;28;20028;-60
2021/05/02 10:22:04;;;;;;;10.48;4.50;;;15.50;99.20;;;;;;5049768;28;20102;-54
2021/05/02 10:24:30;;;;;;;46.08;7.05;;;15.70;98.90;;;;;;5049476;28;20044;-60
2021/05/02 10:26:56;;;;;;;15.57;3.95;;;15.50;98.40;;;;;;5051283;28;20037;-58
2021/05/02 10:29:27;;;;;;;8.20;4.28;;;15.80;98.10;;;;;;5050379;28;20518;-57
2021/05/02 10:32:02;;;;;;;10.95;4.13;;;15.40;97.50;;;;;;5052831;28;20028;-57
2021/05/02 10:34:34;;;;;;;7.32;3.55;;;15.00;97.10;;;;;;5052662;28;20043;-58
2021/05/02 10:37:21;;;;;;;11.82;4.00;;;14.80;97.80;;;;;;5052177;28;20497;-58
2021/05/02 10:39:59;;;;;;;7.72;3.53;;;14.30;97.00;;;;;;5050506;28;21647;-57
2021/05/02 10:42:50;;;;;;;8.18;3.67;;;14.40;97.10;;;;;;5052331;28;20029;-57
2021/05/02 10:45:35;;;;;;;9.82;3.25;;;14.60;96.90;;;;;;5051889;28;20387;-59
2021/05/02 10:48:06;;;;;;;13.85;3.95;;;14.50;97.20;;;;;;5048064;28;20074;-58
2021/05/02 10:50:40;;;;;;;10.10;3.75;;;14.70;97.90;;;;;;5051184;28;20029;-58
2021/05/02 10:53:16;;;;;;;11.80;3.70;;;15.00;97.00;;;;;;5052948;28;20116;-57
2021/05/02 10:55:53;;;;;;;10.05;4.20;;;15.30;97.20;;;;;;5052648;28;20044;-59
2021/05/02 10:58:20;;;;;;;6.63;3.60;;;15.40;96.90;;;;;;5052599;28;20552;-57
2021/05/02 11:00:58;;;;;;;6.97;3.83;;;15.60;96.20;;;;;;5052766;28;20500;-58
2021/05/02 11:03:39;;;;;;;11.20;3.80;;;15.40;96.10;;;;;;5050829;28;20061;-59
2021/05/02 11:06:09;;;;;;;10.95;4.03;;;15.50;96.50;;;;;;5052695;28;20067;-57
2021/05/02 11:08:58;;;;;;;11.63;3.80;;;16.00;96.40;;;;;;5052854;28;20040;-55
2021/05/02 11:11:30;;;;;;;7.35;3.60;;;15.90;95.10;;;;;;5052414;28;20025;-56
2021/05/02 11:14:08;;;;;;;13.80;4.15;;;15.80;95.40;;;;;;5052624;28;20028;-53
2021/05/02 11:16:34;;;;;;;7.40;3.83;;;16.00;96.50;;;;;;5051914;28;20468;-58
2021/05/02 11:19:01;;;;;;;5.95;3.40;;;15.90;96.30;;;;;;5052415;28;20029;-56
2021/05/02 11:21:51;;;;;;;5.50;3.28;;;16.00;95.30;;;;;;5053266;28;20475;-58
2021/05/02 11:24:36;;;;;;;13.70;3.22;;;15.70;94.60;;;;;;5043448;28;20065;-57
2021/05/02 11:29:40;;;;;;;7.07;3.30;;;15.20;94.60;;;;;;5052532;28;20064;-56
2021/05/02 11:32:07;;;;;;;17.40;3.33;;;15.00;95.00;;;;;;5050693;28;20487;-56
2021/05/02 11:34:50;;;;;;;11.10;4.60;;;14.90;95.90;;;;;;5051690;28;20041;-57
2021/05/02 11:37:40;;;;;;;13.82;4.60;;;14.70;97.30;;;;;;5051772;28;20029;-53
2021/05/02 11:40:29;;;;;;;12.95;3.92;;;14.60;98.10;;;;;;5050300;28;20040;-58
2021/05/02 11:43:07;;;;;;;15.52;4.40;;;14.60;99.00;;;;;;5045061;28;20487;-58
2021/05/02 11:45:45;;;;;;;9.95;3.25;;;14.60;98.80;;;;;;5051395;28;20744;-57
2021/05/02 11:48:31;;;;;;;10.13;3.47;;;14.50;96.60;;;;;;5051288;28;20036;-57
2021/05/02 11:51:01;;;;;;;10.02;3.42;;;14.20;96.60;;;;;;5049207;28;20025;-54
2021/05/02 11:53:34;;;;;;;36.03;4.05;;;14.10;96.90;;;;;;5050477;28;20040;-56
2021/05/02 11:56:01;;;;;;;7.05;2.22;;;14.20;96.30;;;;;;5051407;28;20033;-57
2021/05/02 11:58:27;;;;;;;6.53;2.80;;;14.30;95.40;;;;;;5049787;28;20037;-58
2021/05/02 12:00:53;;;;;;;8.25;2.58;;;14.60;95.00;;;;;;5052337;28;20020;-57
2021/05/02 12:03:37;;;;;;;10.70;2.50;;;14.80;94.00;;;;;;5051063;28;20838;-58
2021/05/02 12:06:05;;;;;;;8.23;2.30;;;15.00;93.00;;;;;;5051144;28;20040;-54
2021/05/02 12:08:31;;;;;;;10.50;3.30;;;15.30;92.70;;;;;;5050341;28;20463;-52
2021/05/02 12:11:00;;;;;;;11.13;3.13;;;15.40;93.30;;;;;;5051469;28;20502;-55
2021/05/02 12:13:45;;;;;;;6.18;2.90;;;15.60;92.70;;;;;;5050846;28;20040;-57
2021/05/02 12:16:10;;;;;;;16.03;3.57;;;15.60;91.80;;;;;;5050132;28;20074;-55
2021/05/02 12:18:46;;;;;;;11.48;3.30;;;15.50;92.20;;;;;;5052149;28;20048;-56
2021/05/02 12:21:14;;;;;;;12.35;4.10;;;15.50;92.90;;;;;;5051092;28;20178;-58
2021/05/02 12:23:41;;;;;;;5.72;3.92;;;15.50;94.30;;;;;;5051286;28;20063;-55
2021/05/02 12:26:11;;;;;;;11.50;4.05;;;15.60;95.20;;;;;;5050130;28;20063;-54
2021/05/02 12:28:38;;;;;;;7.45;3.50;;;15.50;95.60;;;;;;5051144;28;20029;-57
2021/05/02 12:31:07;;;;;;;6.53;3.65;;;15.40;95.90;;;;;;5050809;28;20033;-55
2021/05/02 12:33:38;;;;;;;14.70;6.85;;;15.30;96.40;;;;;;5049474;28;20121;-56
2021/05/02 12:36:05;;;;;;;7.70;3.88;;;15.00;96.50;;;;;;5050870;28;20035;-58
2021/05/02 12:38:31;;;;;;;7.25;4.53;;;15.10;96.60;;;;;;5054742;28;20040;-57
2021/05/02 12:40:57;;;;;;;13.70;4.75;;;15.20;96.20;;;;;;5050847;28;20024;-57
2021/05/02 12:43:28;;;;;;;15.48;4.43;;;15.30;95.90;;;;;;5050858;28;20059;-59
2021/05/02 12:45:54;;;;;;;7.50;4.25;;;15.20;96.30;;;;;;5050923;28;20021;-57
2021/05/02 12:48:38;;;;;;;17.95;4.40;;;15.20;95.90;;;;;;5049333;28;20571;-55
2021/05/02 12:51:04;;;;;;;10.85;5.10;;;15.10;96.00;;;;;;5050619;28;20067;-55
2021/05/02 12:53:41;;;;;;;11.25;4.68;;;14.70;97.20;;;;;;5049961;28;20048;-58
2021/05/02 12:56:08;;;;;;;10.13;5.18;;;14.20;98.10;;;;;;5050892;28;20495;-53
2021/05/02 12:58:42;;;;;;;14.68;4.32;;;14.00;99.10;;;;;;5050098;28;20029;-55